Adams, North Dakota
Current Conditions -  °F | °C
As of 6:55 PM on Saturday 25 Oct 2014 (Local Time) from KD55 Reporting Station
Clear Clear  
Wind Chill:   Ceiling: Unl
Heat Index:   Visibility: 10mi
Dew Point: -8°   Wind: 7mph
Humidity: 34%   Direction: 280°W
Pressure: 30.01"   Gusts: NA
Location:  48.42°N, 98.08°W
Report Text: KD55 252355Z AUTO 28006KT 10SM CLR 07/M08 A3001 RMK AO2
Loading
Personal Weather Stations






























Interactive Weather Map New forecast layout! Learn more

10-Day Weather Forecast

Advertisements
Track Severe Weather on mobile